createdAt,value
2022-11-17T00:00:27.696Z,2.63
2022-11-17T00:02:54.236Z,3.10
2022-11-17T00:05:21.163Z,2.70
2022-11-17T00:07:48.997Z,2.47
2022-11-17T00:10:17.205Z,2.60
2022-11-17T00:13:02.630Z,2.30
2022-11-17T00:15:29.191Z,2.50
2022-11-17T00:18:15.680Z,2.35
2022-11-17T00:21:00.704Z,2.95
2022-11-17T00:23:46.574Z,3.30
2022-11-17T00:26:21.296Z,2.63
2022-11-17T00:28:51.586Z,2.47
2022-11-17T00:31:36.771Z,2.03
2022-11-17T00:34:06.439Z,2.65
2022-11-17T00:36:34.807Z,2.50
2022-11-17T00:39:01.584Z,2.25
2022-11-17T00:41:28.789Z,2.75
2022-11-17T00:43:55.387Z,3.10
2022-11-17T00:46:22.011Z,2.53
2022-11-17T00:48:48.530Z,3.00
2022-11-17T00:51:15.049Z,2.85
2022-11-17T00:53:41.506Z,2.50
2022-11-17T00:56:07.906Z,2.55
2022-11-17T00:58:35.484Z,2.22
2022-11-17T01:01:02.755Z,3.35
2022-11-17T01:03:29.303Z,2.53
2022-11-17T01:05:55.757Z,2.50
2022-11-17T01:08:22.184Z,2.70
2022-11-17T01:10:48.685Z,2.83
2022-11-17T01:13:17.973Z,2.42
2022-11-17T01:15:44.375Z,2.30
2022-11-17T01:18:11.126Z,2.60
2022-11-17T01:20:37.696Z,2.40
2022-11-17T01:23:04.111Z,2.03
2022-11-17T01:25:31.184Z,1.98
2022-11-17T01:27:57.663Z,2.20
2022-11-17T01:30:24.129Z,2.40
2022-11-17T01:32:50.552Z,2.20
2022-11-17T01:35:17.094Z,2.22
2022-11-17T01:37:43.508Z,2.15
2022-11-17T01:40:13.420Z,2.63
2022-11-17T01:42:39.992Z,2.40
2022-11-17T01:45:22.020Z,2.25
2022-11-17T01:48:01.929Z,2.05
2022-11-17T01:50:37.319Z,2.15
2022-11-17T01:55:42.523Z,2.15
2022-11-17T01:58:13.860Z,2.47
2022-11-17T02:00:40.491Z,2.33
2022-11-17T02:03:07.441Z,2.33
2022-11-17T02:05:54.173Z,2.85
2022-11-17T02:08:23.580Z,2.60
2022-11-17T02:10:52.118Z,1.98
2022-11-17T02:13:20.511Z,2.83
2022-11-17T02:15:47.133Z,2.35
2022-11-17T02:18:15.280Z,2.40
2022-11-17T02:20:51.874Z,2.00
2022-11-17T02:23:24.405Z,2.20
2022-11-17T02:26:15.326Z,2.17
2022-11-17T02:29:00.259Z,2.35
2022-11-17T02:32:01.868Z,2.10
2022-11-17T02:34:35.530Z,1.98
2022-11-17T02:37:25.901Z,2.00
2022-11-17T02:39:55.920Z,2.00
2022-11-17T02:42:47.718Z,2.58
2022-11-17T02:45:21.361Z,1.95
2022-11-17T02:47:53.910Z,2.35
2022-11-17T02:50:28.075Z,2.10
2022-11-17T02:52:55.668Z,2.35
2022-11-17T02:55:22.084Z,2.15
2022-11-17T02:57:49.663Z,2.30
2022-11-17T03:00:18.204Z,2.10
2022-11-17T03:03:03.147Z,1.88
2022-11-17T03:05:47.902Z,1.92
2022-11-17T03:08:36.382Z,1.48
2022-11-17T03:11:05.282Z,1.52
2022-11-17T03:13:43.807Z,2.03
2022-11-17T03:16:37.226Z,2.35
2022-11-17T03:19:06.403Z,2.10
2022-11-17T03:21:58.227Z,1.35
2022-11-17T03:24:31.342Z,1.35
2022-11-17T03:27:05.854Z,2.60
2022-11-17T03:29:35.755Z,1.87
2022-11-17T03:32:06.321Z,1.70
2022-11-17T03:34:39.193Z,1.65
2022-11-17T03:37:08.790Z,1.52
2022-11-17T03:39:40.000Z,2.13
2022-11-17T03:42:38.900Z,1.70
2022-11-17T03:45:18.081Z,1.50
2022-11-17T03:47:45.514Z,1.05
2022-11-17T03:50:17.268Z,1.77
2022-11-17T03:52:44.850Z,1.52
2022-11-17T03:55:12.368Z,1.70
2022-11-17T03:57:49.635Z,1.25
2022-11-17T04:00:18.687Z,1.70
2022-11-17T04:02:47.852Z,1.83
2022-11-17T04:05:17.386Z,1.15
2022-11-17T04:07:45.852Z,1.45
2022-11-17T04:10:14.535Z,1.08
2022-11-17T04:13:00.646Z,2.40
2022-11-17T04:15:46.486Z,1.38
2022-11-17T04:18:13.701Z,1.48
2022-11-17T04:20:40.241Z,1.30
2022-11-17T04:23:09.211Z,1.67
2022-11-17T04:26:09.301Z,1.80
2022-11-17T04:28:39.620Z,1.67
2022-11-17T04:31:16.051Z,1.38
2022-11-17T04:33:48.109Z,1.58
2022-11-17T04:36:17.483Z,1.30
2022-11-17T04:38:46.546Z,1.05
2022-11-17T04:41:33.499Z,1.52
2022-11-17T04:44:01.276Z,1.52
2022-11-17T04:46:29.456Z,1.77
2022-11-17T04:48:57.014Z,1.02
2022-11-17T04:51:25.095Z,1.00
2022-11-17T04:53:51.884Z,1.20
2022-11-17T04:56:19.394Z,1.20
2022-11-17T04:58:46.059Z,1.42
2022-11-17T05:01:12.626Z,1.20
2022-11-17T05:03:51.024Z,1.40
2022-11-17T05:06:29.132Z,0.70
2022-11-17T05:08:56.485Z,1.42
2022-11-17T05:11:44.094Z,1.65
2022-11-17T05:14:11.967Z,1.25
2022-11-17T05:16:57.714Z,1.30
2022-11-17T05:21:51.964Z,1.92
2022-11-17T05:24:18.705Z,1.50
2022-11-17T05:26:46.682Z,1.38
2022-11-17T05:29:15.481Z,1.00
2022-11-17T05:31:42.429Z,1.92
2022-11-17T05:34:12.316Z,1.42
2022-11-17T05:36:39.455Z,1.58
2022-11-17T05:39:06.261Z,1.40
2022-11-17T05:41:32.886Z,1.08
2022-11-17T05:43:59.340Z,1.63
2022-11-17T05:46:26.156Z,2.75
2022-11-17T05:48:53.301Z,1.60
2022-11-17T05:51:22.075Z,1.80
2022-11-17T05:53:49.205Z,1.85
2022-11-17T05:56:42.217Z,1.58
2022-11-17T05:59:17.400Z,1.70
2022-11-17T06:01:52.516Z,1.60
2022-11-17T06:04:20.490Z,1.70
2022-11-17T06:06:48.343Z,1.90
2022-11-17T06:09:15.574Z,1.83
2022-11-17T06:11:42.061Z,1.98
2022-11-17T06:14:08.540Z,1.92
2022-11-17T06:16:41.509Z,1.98
2022-11-17T06:19:13.799Z,2.15
2022-11-17T06:22:09.832Z,2.03
2022-11-17T06:24:27.252Z,1.90
2022-11-17T06:26:53.756Z,2.17
2022-11-17T06:29:20.309Z,1.73
2022-11-17T06:31:47.194Z,1.98
2022-11-17T06:34:13.719Z,2.20
2022-11-17T06:36:40.167Z,3.15
2022-11-17T06:39:06.659Z,2.28
2022-11-17T06:41:33.102Z,2.53
2022-11-17T06:43:59.646Z,2.03
2022-11-17T06:46:37.725Z,2.28
2022-11-17T06:49:06.473Z,2.08
2022-11-17T06:51:38.938Z,3.50
2022-11-17T06:54:09.736Z,2.97
2022-11-17T06:56:36.350Z,3.28
2022-11-17T06:59:02.866Z,2.70
2022-11-17T07:01:29.375Z,3.05
2022-11-17T07:03:55.833Z,2.83
2022-11-17T07:06:22.372Z,2.20
2022-11-17T07:08:48.952Z,2.10
2022-11-17T07:11:16.612Z,2.20
2022-11-17T07:13:43.457Z,2.03
2022-11-17T07:16:21.815Z,2.20
2022-11-17T07:18:50.308Z,1.85
2022-11-17T07:21:17.911Z,2.05
2022-11-17T07:23:45.699Z,1.80
2022-11-17T07:26:12.696Z,1.67
2022-11-17T07:28:39.345Z,1.95
2022-11-17T07:31:08.048Z,2.58
2022-11-17T07:33:35.269Z,2.35
2022-11-17T07:36:10.054Z,1.95
2022-11-17T07:38:38.560Z,2.20
2022-11-17T07:41:06.821Z,2.88
2022-11-17T07:43:34.467Z,1.55
2022-11-17T07:46:10.408Z,1.65
2022-11-17T07:48:37.295Z,1.92
2022-11-17T07:51:05.406Z,1.65
2022-11-17T07:53:33.335Z,2.17
2022-11-17T07:56:08.117Z,1.65
2022-11-17T07:58:35.133Z,1.30
2022-11-17T08:01:10.114Z,1.80
2022-11-17T08:03:36.826Z,1.65
2022-11-17T08:06:07.306Z,0.90
2022-11-17T08:08:34.749Z,1.40
2022-11-17T08:11:06.777Z,1.15
2022-11-17T08:13:33.956Z,0.73
2022-11-17T08:16:00.799Z,2.05
2022-11-17T08:18:28.779Z,0.88
2022-11-17T08:21:06.378Z,1.20
2022-11-17T08:23:34.216Z,1.20
2022-11-17T08:26:02.361Z,0.82
2022-11-17T08:28:28.935Z,1.45
2022-11-17T08:30:56.005Z,1.67
2022-11-17T08:33:22.734Z,1.23
2022-11-17T08:35:49.274Z,1.02
2022-11-17T08:38:15.795Z,1.20
2022-11-17T08:40:42.540Z,0.98
2022-11-17T08:43:09.119Z,1.48
2022-11-17T08:45:35.647Z,0.70
2022-11-17T08:48:02.161Z,1.30
2022-11-17T08:50:28.739Z,1.08
2022-11-17T08:52:55.228Z,1.35
2022-11-17T08:55:21.823Z,1.15
2022-11-17T08:57:48.433Z,1.17
2022-11-17T09:00:16.317Z,1.00
2022-11-17T09:02:42.857Z,1.63
2022-11-17T09:05:09.494Z,0.85
2022-11-17T09:07:35.979Z,0.95
2022-11-17T09:10:04.482Z,1.13
2022-11-17T09:12:31.358Z,1.55
2022-11-17T09:14:57.861Z,1.17
2022-11-17T09:17:24.373Z,1.40
2022-11-17T09:19:50.821Z,1.65
2022-11-17T09:22:17.335Z,0.57
2022-11-17T09:24:43.793Z,1.48
2022-11-17T09:27:10.239Z,1.40
2022-11-17T09:29:36.656Z,1.65
2022-11-17T09:32:03.142Z,1.15
2022-11-17T09:34:29.712Z,0.85
2022-11-17T09:36:56.506Z,0.93
2022-11-17T09:39:23.053Z,1.20
2022-11-17T09:41:51.853Z,1.30
2022-11-17T09:44:24.498Z,1.40
2022-11-17T09:47:08.062Z,1.02
2022-11-17T09:49:58.300Z,1.23
2022-11-17T09:52:50.856Z,0.77
2022-11-17T09:55:34.223Z,1.75
2022-11-17T09:58:11.192Z,1.85
2022-11-17T10:00:40.851Z,1.45
2022-11-17T10:03:18.231Z,1.63
2022-11-17T10:05:45.083Z,1.60
2022-11-17T10:08:18.425Z,1.27
2022-11-17T10:10:52.136Z,1.85
2022-11-17T10:13:31.977Z,1.60
2022-11-17T10:16:05.680Z,1.95
2022-11-17T10:18:38.066Z,1.55
2022-11-17T10:21:06.724Z,1.25
2022-11-17T10:23:47.129Z,1.63
2022-11-17T10:26:15.604Z,1.60
2022-11-17T10:28:42.170Z,0.98
2022-11-17T10:31:17.082Z,0.73
2022-11-17T10:33:46.064Z,1.17
2022-11-17T10:36:32.694Z,0.65
2022-11-17T10:39:00.667Z,0.70
2022-11-17T10:41:30.516Z,1.63
2022-11-17T10:43:59.827Z,1.23
2022-11-17T10:46:29.923Z,0.95
2022-11-17T10:49:05.017Z,1.38
2022-11-17T10:51:33.440Z,0.60
2022-11-17T10:54:19.758Z,0.57
2022-11-17T10:56:55.890Z,1.17
2022-11-17T10:59:33.357Z,0.25
2022-11-17T11:02:25.524Z,1.10
2022-11-17T11:05:09.298Z,0.98
2022-11-17T11:07:36.520Z,0.88
2022-11-17T11:10:14.332Z,1.70
2022-11-17T11:13:08.861Z,0.95
2022-11-17T11:15:36.521Z,1.17
2022-11-17T11:18:13.161Z,0.60
2022-11-17T11:20:47.164Z,0.65
2022-11-17T11:23:39.493Z,1.00
2022-11-17T11:26:33.006Z,0.90
2022-11-17T11:29:22.168Z,1.05
2022-11-17T11:32:05.422Z,1.02
2022-11-17T11:34:50.456Z,0.80
2022-11-17T11:37:17.086Z,0.63
2022-11-17T11:40:26.879Z,0.95
2022-11-17T11:43:04.986Z,0.80
2022-11-17T11:45:53.439Z,1.23
2022-11-17T11:48:27.035Z,0.90
2022-11-17T11:51:11.049Z,1.23
2022-11-17T11:53:49.269Z,1.35
2022-11-17T11:56:21.129Z,1.27
2022-11-17T11:59:07.798Z,1.42
2022-11-17T12:01:44.884Z,0.77
2022-11-17T12:04:33.694Z,0.90
2022-11-17T12:07:14.109Z,0.60
2022-11-17T12:10:04.110Z,0.80
2022-11-17T12:12:33.918Z,0.60
2022-11-17T12:15:18.763Z,1.08
2022-11-17T12:18:06.074Z,1.10
2022-11-17T12:20:38.659Z,1.13
2022-11-17T12:23:24.016Z,0.68
2022-11-17T12:26:00.592Z,1.15
2022-11-17T12:28:39.027Z,0.70
2022-11-17T12:31:32.746Z,0.82
2022-11-17T12:33:59.158Z,0.85
2022-11-17T12:36:32.798Z,0.75
2022-11-17T12:39:01.209Z,0.75
2022-11-17T12:41:49.796Z,0.73
2022-11-17T12:44:38.368Z,0.77
2022-11-17T12:47:14.167Z,1.10
2022-11-17T12:50:05.580Z,1.13
2022-11-17T12:52:37.735Z,0.85
2022-11-17T12:55:37.040Z,0.93
2022-11-17T12:58:11.176Z,1.10
2022-11-17T13:00:48.971Z,1.25
2022-11-17T13:03:17.511Z,1.05
2022-11-17T13:05:43.991Z,0.77
2022-11-17T13:08:23.025Z,1.52
2022-11-17T13:10:50.871Z,1.38
2022-11-17T13:13:22.231Z,0.82
2022-11-17T13:15:53.412Z,1.10
2022-11-17T13:18:22.541Z,0.40
2022-11-17T13:20:49.506Z,0.43
2022-11-17T13:23:25.801Z,0.77
2022-11-17T13:26:09.345Z,0.40
2022-11-17T13:28:36.111Z,0.40
2022-11-17T13:31:02.914Z,0.80
2022-11-17T13:33:30.493Z,0.88
2022-11-17T13:36:07.375Z,0.93
2022-11-17T13:38:33.852Z,1.10
2022-11-17T13:41:01.883Z,0.90
2022-11-17T13:43:36.375Z,1.55
2022-11-17T13:46:06.185Z,0.70
2022-11-17T13:48:43.472Z,1.65
2022-11-17T13:51:22.702Z,0.50
2022-11-17T13:54:11.372Z,1.52
2022-11-17T13:56:42.495Z,1.10
2022-11-17T13:59:18.186Z,1.35
2022-11-17T14:01:45.051Z,1.45
2022-11-17T14:04:21.527Z,1.48
2022-11-17T14:06:52.092Z,1.50
2022-11-17T14:09:18.769Z,1.27
2022-11-17T14:11:45.456Z,1.30
2022-11-17T14:14:14.051Z,1.48
2022-11-17T14:16:41.682Z,1.70
2022-11-17T14:19:17.242Z,1.77
2022-11-17T14:22:08.404Z,1.70
2022-11-17T14:24:35.315Z,1.40
2022-11-17T14:27:01.928Z,1.23
2022-11-17T14:29:29.458Z,1.77
2022-11-17T14:31:56.910Z,1.60
2022-11-17T14:34:23.893Z,1.48
2022-11-17T14:36:54.459Z,1.70
2022-11-17T14:39:21.241Z,1.67
2022-11-17T14:41:49.923Z,1.70
2022-11-17T14:44:17.219Z,2.20
2022-11-17T14:46:43.918Z,1.50
2022-11-17T14:49:10.543Z,1.83
2022-11-17T14:51:37.013Z,1.77
2022-11-17T14:54:03.916Z,1.83
2022-11-17T14:56:30.501Z,2.08
2022-11-17T14:59:00.461Z,1.30
2022-11-17T15:01:31.082Z,2.88
2022-11-17T15:04:04.134Z,2.05
2022-11-17T15:06:37.653Z,1.55
2022-11-17T15:09:05.859Z,1.50
2022-11-17T15:11:38.185Z,1.80
2022-11-17T15:14:06.268Z,2.00
2022-11-17T15:16:33.558Z,2.33
2022-11-17T15:19:00.117Z,1.80
2022-11-17T15:21:26.615Z,3.20
2022-11-17T15:23:53.068Z,2.58
2022-11-17T15:26:23.290Z,2.63
2022-11-17T15:28:49.776Z,2.25
2022-11-17T15:31:18.739Z,2.05
2022-11-17T15:33:46.445Z,2.17
2022-11-17T15:36:18.620Z,2.08
2022-11-17T15:38:45.300Z,2.17
2022-11-17T15:41:12.976Z,2.08
2022-11-17T15:43:40.934Z,2.05
2022-11-17T15:46:12.918Z,1.75
2022-11-17T15:48:42.931Z,1.90
2022-11-17T15:51:14.845Z,2.63
2022-11-17T15:53:43.973Z,2.70
2022-11-17T15:56:17.324Z,1.95
2022-11-17T15:58:45.026Z,1.90
2022-11-17T16:01:16.727Z,2.25
2022-11-17T16:03:45.311Z,2.38
2022-11-17T16:06:12.667Z,2.90
2022-11-17T16:08:39.471Z,2.40
2022-11-17T16:11:06.733Z,2.50
2022-11-17T16:13:33.610Z,2.30
2022-11-17T16:16:00.145Z,2.33
2022-11-17T16:18:27.212Z,1.85
2022-11-17T16:20:53.871Z,2.75
2022-11-17T16:23:20.452Z,2.15
2022-11-17T16:25:48.276Z,2.50
2022-11-17T16:28:16.833Z,2.95
2022-11-17T16:30:43.460Z,2.38
2022-11-17T16:33:14.702Z,2.00
2022-11-17T16:35:41.429Z,1.67
2022-11-17T16:38:16.287Z,2.28
2022-11-17T16:40:43.615Z,2.13
2022-11-17T16:43:12.217Z,4.28
2022-11-17T16:45:43.862Z,17.45
2022-11-17T16:48:12.155Z,4.43
2022-11-17T16:50:40.338Z,6.15
2022-11-17T16:53:06.819Z,2.85
2022-11-17T16:55:37.681Z,2.75
2022-11-17T16:58:06.014Z,3.35
2022-11-17T17:00:34.742Z,4.20
2022-11-17T17:03:02.179Z,3.03
2022-11-17T17:05:31.721Z,2.40
2022-11-17T17:07:58.201Z,2.80
2022-11-17T17:10:24.766Z,2.40
2022-11-17T17:12:51.299Z,2.60
2022-11-17T17:15:17.875Z,2.50
2022-11-17T17:17:44.317Z,2.50
2022-11-17T17:20:13.723Z,2.95
2022-11-17T17:22:40.357Z,2.63
2022-11-17T17:25:07.798Z,2.70
2022-11-17T17:27:34.259Z,3.00
2022-11-17T17:30:00.734Z,3.50
2022-11-17T17:32:27.192Z,2.67
2022-11-17T17:34:53.721Z,3.15
2022-11-17T17:37:20.195Z,2.35
2022-11-17T17:39:46.697Z,2.70
2022-11-17T17:42:13.555Z,4.28
2022-11-17T17:44:39.976Z,2.85
2022-11-17T17:47:06.623Z,2.60
2022-11-17T17:49:33.081Z,2.95
2022-11-17T17:51:59.521Z,2.28
2022-11-17T17:54:26.088Z,5.10
2022-11-17T17:56:52.883Z,3.67
2022-11-17T17:59:19.906Z,3.10
2022-11-17T18:01:47.733Z,3.85
2022-11-17T18:04:16.200Z,3.90
2022-11-17T18:06:47.010Z,3.45
2022-11-17T18:09:15.470Z,3.75
2022-11-17T18:11:46.038Z,4.20
2022-11-17T18:14:13.259Z,4.10
2022-11-17T18:16:40.381Z,3.78
2022-11-17T18:19:08.461Z,3.88
2022-11-17T18:21:35.366Z,3.78
2022-11-17T18:24:03.193Z,2.03
2022-11-17T18:26:32.447Z,4.53
2022-11-17T18:29:00.180Z,3.25
2022-11-17T18:31:29.882Z,3.25
2022-11-17T18:34:02.281Z,3.38
2022-11-17T18:36:29.454Z,3.08
2022-11-17T18:38:58.351Z,4.13
2022-11-17T18:41:26.099Z,3.08
2022-11-17T18:43:52.658Z,3.90
2022-11-17T18:46:21.628Z,3.42
2022-11-17T18:48:51.511Z,3.38
2022-11-17T18:51:21.146Z,4.10
2022-11-17T18:53:48.891Z,3.75
2022-11-17T18:56:19.846Z,3.42
2022-11-17T18:58:47.087Z,2.97
2022-11-17T19:01:18.323Z,3.72
2022-11-17T19:03:48.591Z,3.38
2022-11-17T19:06:16.670Z,3.42
2022-11-17T19:08:44.256Z,3.45
2022-11-17T19:11:12.204Z,3.30
2022-11-17T19:13:40.604Z,2.95
2022-11-17T19:16:12.340Z,3.15
2022-11-17T19:18:39.445Z,2.63
2022-11-17T19:21:14.220Z,2.42
2022-11-17T19:23:43.480Z,2.92
2022-11-17T19:26:14.819Z,2.92
2022-11-17T19:28:42.075Z,2.30
2022-11-17T19:31:11.274Z,2.78
2022-11-17T19:33:40.039Z,3.17
2022-11-17T19:36:09.689Z,2.65
2022-11-17T19:38:38.568Z,2.65
2022-11-17T19:41:10.419Z,2.65
2022-11-17T19:43:43.455Z,2.55
2022-11-17T19:46:14.030Z,3.00
2022-11-17T19:48:41.149Z,3.25
2022-11-17T19:51:16.687Z,3.03
2022-11-17T19:53:43.418Z,3.03
2022-11-17T19:56:09.937Z,3.28
2022-11-17T19:58:36.403Z,3.08
2022-11-17T20:01:12.057Z,3.35
2022-11-17T20:03:39.650Z,3.28
2022-11-17T20:06:07.087Z,2.42
2022-11-17T20:08:33.560Z,3.60
2022-11-17T20:11:20.769Z,3.30
2022-11-17T20:13:47.699Z,2.28
2022-11-17T20:16:19.862Z,2.90
2022-11-17T20:18:49.912Z,2.92
2022-11-17T20:21:16.413Z,3.13
2022-11-17T20:23:43.629Z,2.95
2022-11-17T20:26:15.342Z,2.65
2022-11-17T20:28:42.200Z,2.90
2022-11-17T20:31:16.408Z,3.35
2022-11-17T20:33:43.836Z,3.08
2022-11-17T20:36:16.725Z,3.25
2022-11-17T20:38:43.471Z,3.05
2022-11-17T20:41:10.366Z,3.47
2022-11-17T20:43:37.343Z,3.58
2022-11-17T20:46:04.347Z,2.97
2022-11-17T20:48:33.893Z,3.58
2022-11-17T20:51:00.327Z,3.58
2022-11-17T20:53:28.398Z,3.88
2022-11-17T20:55:56.486Z,3.78
2022-11-17T20:58:24.053Z,4.03
2022-11-17T21:00:50.651Z,4.10
2022-11-17T21:03:17.639Z,4.95
2022-11-17T21:05:44.181Z,4.43
2022-11-17T21:08:10.675Z,4.35
2022-11-17T21:10:37.141Z,4.63
2022-11-17T21:13:03.669Z,4.95
2022-11-17T21:15:30.127Z,4.78
2022-11-17T21:18:15.079Z,5.50
2022-11-17T21:20:41.536Z,6.85
2022-11-17T21:23:07.940Z,6.90
2022-11-17T21:25:36.241Z,6.50
2022-11-17T21:28:03.085Z,5.03
2022-11-17T21:30:29.604Z,5.43
2022-11-17T21:32:56.085Z,4.45
2022-11-17T21:35:22.573Z,4.70
2022-11-17T21:37:48.988Z,4.80
2022-11-17T21:40:16.003Z,4.47
2022-11-17T21:42:42.487Z,4.25
2022-11-17T21:45:09.530Z,4.05
2022-11-17T21:47:36.017Z,4.32
2022-11-17T21:50:02.573Z,3.90
2022-11-17T21:52:29.054Z,3.80
2022-11-17T21:54:55.551Z,3.92
2022-11-17T21:57:22.003Z,3.17
2022-11-17T21:59:48.496Z,3.80
2022-11-17T22:02:14.956Z,5.32
2022-11-17T22:04:41.384Z,4.15
2022-11-17T22:07:07.894Z,4.90
2022-11-17T22:09:35.794Z,4.97
2022-11-17T22:12:02.747Z,8.60
2022-11-17T22:14:29.226Z,7.30
2022-11-17T22:16:56.437Z,9.57
2022-11-17T22:19:26.454Z,7.95
2022-11-17T22:21:53.820Z,9.82
2022-11-17T22:24:21.402Z,8.38
2022-11-17T22:26:48.158Z,4.65
2022-11-17T22:29:20.401Z,5.50
2022-11-17T22:31:48.555Z,4.22
2022-11-17T22:34:15.768Z,3.72
2022-11-17T22:36:42.484Z,4.32
2022-11-17T22:39:09.395Z,4.45
2022-11-17T22:41:36.108Z,3.35
2022-11-17T22:44:02.599Z,3.60
2022-11-17T22:46:29.440Z,4.43
2022-11-17T22:48:56.369Z,3.70
2022-11-17T22:51:43.569Z,4.10
2022-11-17T22:54:10.217Z,4.15
2022-11-17T22:56:36.800Z,3.60
2022-11-17T22:59:03.499Z,4.88
2022-11-17T23:01:29.992Z,4.10
2022-11-17T23:03:56.649Z,4.00
2022-11-17T23:06:24.151Z,3.90
2022-11-17T23:08:50.663Z,3.63
2022-11-17T23:14:07.543Z,3.92
2022-11-17T23:16:33.997Z,3.55
2022-11-17T23:19:00.470Z,3.38
2022-11-17T23:21:27.040Z,3.45
2022-11-17T23:23:53.632Z,3.47
2022-11-17T23:26:20.594Z,3.65
2022-11-17T23:28:47.118Z,3.22
2022-11-17T23:31:15.684Z,3.53
2022-11-17T23:33:44.823Z,3.47
2022-11-17T23:36:20.216Z,3.78
2022-11-17T23:38:47.805Z,3.95
2022-11-17T23:41:16.067Z,4.10
2022-11-17T23:43:42.929Z,4.13
2022-11-17T23:46:17.441Z,4.63
2022-11-17T23:48:44.896Z,3.87
2022-11-17T23:51:14.061Z,4.05
2022-11-17T23:53:40.906Z,3.95
2022-11-17T23:56:08.853Z,3.78
2022-11-17T23:58:35.973Z,3.22
